Time,TemperatureF,DewpointF,PressureIn,WindDirection,WindDirectionDegrees,WindSpeedMPH,WindSpeedGustMPH,Humidity,HourlyPrecipIn,Conditions,Clouds,dailyrainin,SoftwareType,DateUTC
2013-07-11 00:00:00,76.0,73.8,30.06,SE,140,0.0,0.0,93,0.00,,,0.00,Wunderground v.1.15,2013-07-11 04:00:00,
2013-07-11 00:05:00,76.2,74.0,30.06,SE,140,0.0,0.0,93,0.00,,,0.00,Wunderground v.1.15,2013-07-11 04:05:00,
2013-07-11 00:10:00,76.3,73.8,30.06,SE,140,0.0,0.0,92,0.00,,,0.00,Wunderground v.1.15,2013-07-11 04:10:00,
2013-07-11 00:15:00,76.2,73.7,30.06,SE,140,0.0,0.0,92,0.00,,,0.00,Wunderground v.1.15,2013-07-11 04:15:00,
2013-07-11 00:20:00,76.2,73.7,30.05,SE,140,0.0,0.0,92,0.00,,,0.00,Wunderground v.1.15,2013-07-11 04:20:00,
2013-07-11 00:30:00,76.4,74.2,30.06,SE,140,0.0,0.0,93,0.00,,,0.00,Wunderground v.1.15,2013-07-11 04:30:00,
2013-07-11 00:35:00,76.4,73.9,30.05,SE,140,0.0,0.0,92,0.00,,,0.00,Wunderground v.1.15,2013-07-11 04:35:00,
2013-07-11 00:40:00,76.4,73.9,30.05,SE,140,0.0,0.0,92,0.00,,,0.00,Wunderground v.1.15,2013-07-11 04:40:00,
2013-07-11 00:45:00,76.2,73.7,30.05,SE,140,0.0,0.0,92,0.00,,,0.00,Wunderground v.1.15,2013-07-11 04:45:00,
2013-07-11 00:50:00,76.1,73.6,30.05,SE,140,0.0,0.0,92,0.00,,,0.00,Wunderground v.1.15,2013-07-11 04:50:00,
2013-07-11 01:00:00,76.3,73.8,30.05,SE,140,0.0,0.0,92,0.00,,,0.00,Wunderground v.1.15,2013-07-11 05:00:00,
2013-07-11 01:10:00,76.3,73.8,30.05,SE,140,0.0,0.0,92,0.00,,,0.00,Wunderground v.1.15,2013-07-11 05:10:00,
2013-07-11 01:20:00,76.2,73.7,30.05,SE,140,0.0,0.0,92,0.00,,,0.00,Wunderground v.1.15,2013-07-11 05:20:00,
2013-07-11 01:25:00,76.2,74.0,30.05,SE,140,0.0,0.0,93,0.00,,,0.00,Wunderground v.1.15,2013-07-11 05:25:00,
2013-07-11 01:30:00,76.2,74.0,30.05,SE,140,0.0,0.0,93,0.00,,,0.00,Wunderground v.1.15,2013-07-11 05:30:00,
2013-07-11 01:35:00,76.1,73.9,30.04,SE,140,0.0,0.0,93,0.00,,,0.00,Wunderground v.1.15,2013-07-11 05:35:00,
2013-07-11 01:40:00,76.1,73.9,30.04,SE,140,0.0,0.0,93,0.00,,,0.00,Wunderground v.1.15,2013-07-11 05:40:00,
2013-07-11 01:45:00,76.1,73.9,30.04,SE,140,0.0,0.0,93,0.00,,,0.00,Wunderground v.1.15,2013-07-11 05:45:00,
2013-07-11 01:50:00,76.1,73.9,30.04,SE,140,0.0,0.0,93,0.00,,,0.00,Wunderground v.1.15,2013-07-11 05:50:00,
2013-07-11 01:55:00,76.0,73.8,30.03,SE,140,0.0,0.0,93,0.00,,,0.00,Wunderground v.1.15,2013-07-11 05:55:00,
2013-07-11 02:00:00,75.9,73.7,30.03,SE,140,0.0,0.0,93,0.00,,,0.00,Wunderground v.1.15,2013-07-11 06:00:00,
2013-07-11 02:10:00,75.8,73.9,30.04,SE,140,0.0,0.0,94,0.00,,,0.00,Wunderground v.1.15,2013-07-11 06:10:00,
2013-07-11 02:15:00,75.9,74.0,30.03,SE,140,0.0,0.0,94,0.00,,,0.00,Wunderground v.1.15,2013-07-11 06:15:00,
2013-07-11 02:20:00,75.8,73.9,30.03,SE,140,0.0,0.0,94,0.00,,,0.00,Wunderground v.1.15,2013-07-11 06:20:00,
2013-07-11 02:25:00,75.8,73.9,30.03,SE,140,0.0,0.0,94,0.00,,,0.00,Wunderground v.1.15,2013-07-11 06:25:00,
2013-07-11 02:30:00,75.7,73.8,30.04,SE,140,0.0,0.0,94,0.00,,,0.00,Wunderground v.1.15,2013-07-11 06:30:00,
2013-07-11 02:35:00,75.8,73.9,30.03,SE,140,0.0,0.0,94,0.00,,,0.00,Wunderground v.1.15,2013-07-11 06:35:00,
2013-07-11 02:45:00,76.0,74.1,30.03,SE,140,0.0,0.0,94,0.00,,,0.00,Wunderground v.1.15,2013-07-11 06:45:00,
2013-07-11 02:50:00,76.0,74.1,30.03,SE,140,0.0,0.0,94,0.00,,,0.00,Wunderground v.1.15,2013-07-11 06:50:00,
2013-07-11 02:55:00,75.9,73.7,30.03,SE,140,0.0,0.0,93,0.00,,,0.00,Wunderground v.1.15,2013-07-11 06:55:00,
2013-07-11 03:00:00,75.9,73.7,30.03,SE,140,0.0,0.0,93,0.00,,,0.00,Wunderground v.1.15,2013-07-11 07:00:00,
2013-07-11 03:10:00,75.8,73.9,30.03,SE,140,0.0,0.0,94,0.00,,,0.00,Wunderground v.1.15,2013-07-11 07:10:00,
2013-07-11 03:20:00,75.7,73.8,30.02,SE,140,0.0,0.0,94,0.00,,,0.00,Wunderground v.1.15,2013-07-11 07:20:00,
2013-07-11 03:25:00,75.5,73.7,30.03,SE,140,0.0,0.0,94,0.00,,,0.00,Wunderground v.1.15,2013-07-11 07:25:00,
2013-07-11 03:30:00,75.3,73.5,30.03,SE,140,0.0,0.0,94,0.00,,,0.00,Wunderground v.1.15,2013-07-11 07:30:00,
2013-07-11 03:35:00,75.2,73.4,30.03,SE,140,0.0,0.0,94,0.00,,,0.00,Wunderground v.1.15,2013-07-11 07:35:00,
2013-07-11 03:45:00,75.1,73.3,30.02,SE,140,0.0,0.0,94,0.00,,,0.00,Wunderground v.1.15,2013-07-11 07:45:00,
2013-07-11 03:50:00,75.0,73.5,30.02,SE,140,0.0,0.0,95,0.00,,,0.00,Wunderground v.1.15,2013-07-11 07:50:00,
2013-07-11 03:55:00,75.0,73.5,30.01,SE,140,0.0,0.0,95,0.00,,,0.00,Wunderground v.1.15,2013-07-11 07:55:00,
2013-07-11 04:00:00,75.0,73.5,30.01,SE,140,0.0,0.0,95,0.00,,,0.00,Wunderground v.1.15,2013-07-11 08:00:00,
2013-07-11 04:10:00,75.0,73.5,30.02,SE,140,0.0,0.0,95,0.00,,,0.00,Wunderground v.1.15,2013-07-11 08:10:00,
2013-07-11 04:15:00,75.0,73.5,30.01,SE,140,0.0,0.0,95,0.00,,,0.00,Wunderground v.1.15,2013-07-11 08:15:00,
2013-07-11 04:25:00,75.0,73.5,30.01,SE,140,0.0,0.0,95,0.00,,,0.00,Wunderground v.1.15,2013-07-11 08:25:00,
2013-07-11 04:30:00,74.9,73.4,30.01,SE,140,0.0,0.0,95,0.00,,,0.00,Wunderground v.1.15,2013-07-11 08:30:00,
2013-07-11 04:35:00,74.8,73.3,30.01,SE,140,0.0,0.0,95,0.00,,,0.00,Wunderground v.1.15,2013-07-11 08:35:00,
2013-07-11 04:40:00,74.8,73.3,30.01,SE,140,0.0,0.0,95,0.00,,,0.00,Wunderground v.1.15,2013-07-11 08:40:00,
2013-07-11 04:45:00,74.8,73.3,30.01,SE,140,0.0,0.0,95,0.00,,,0.00,Wunderground v.1.15,2013-07-11 08:45:00,
2013-07-11 04:50:00,74.7,73.2,30.01,SE,140,0.0,0.0,95,0.00,,,0.00,Wunderground v.1.15,2013-07-11 08:50:00,
2013-07-11 05:01:00,74.5,73.0,30.01,SE,140,0.0,0.0,95,0.00,,,0.00,Wunderground v.1.15,2013-07-11 09:01:00,
2013-07-11 05:10:00,74.5,73.3,30.01,SE,140,0.0,0.0,96,0.00,,,0.00,Wunderground v.1.15,2013-07-11 09:10:00,
2013-07-11 05:15:00,74.4,73.2,30.01,SE,140,0.0,0.0,96,0.00,,,0.00,Wunderground v.1.15,2013-07-11 09:15:00,
2013-07-11 05:25:00,74.2,73.0,30.02,SE,140,0.0,0.0,96,0.00,,,0.00,Wunderground v.1.15,2013-07-11 09:25:00,
2013-07-11 05:30:00,74.2,73.0,30.01,SE,140,0.0,0.0,96,0.00,,,0.00,Wunderground v.1.15,2013-07-11 09:30:00,
2013-07-11 05:35:00,74.2,73.0,30.01,SE,140,0.0,0.0,96,0.00,,,0.00,Wunderground v.1.15,2013-07-11 09:35:00,
2013-07-11 05:40:00,74.1,72.9,30.01,SE,140,0.0,0.0,96,0.00,,,0.00,Wunderground v.1.15,2013-07-11 09:40:00,
2013-07-11 05:45:00,74.0,72.8,30.01,SE,140,0.0,0.0,96,0.00,,,0.00,Wunderground v.1.15,2013-07-11 09:45:00,
2013-07-11 05:50:00,74.0,72.8,30.02,SE,140,0.0,0.0,96,0.00,,,0.00,Wunderground v.1.15,2013-07-11 09:50:00,
2013-07-11 05:55:00,74.2,73.3,30.01,SE,140,0.0,0.0,97,0.00,,,0.00,Wunderground v.1.15,2013-07-11 09:55:00,
2013-07-11 06:00:00,74.1,72.9,30.01,SE,140,0.0,0.0,96,0.00,,,0.00,Wunderground v.1.15,2013-07-11 10:00:00,
2013-07-11 06:10:00,73.9,73.0,30.01,SE,140,0.0,0.0,97,0.00,,,0.00,Wunderground v.1.15,2013-07-11 10:10:00,
2013-07-11 06:15:00,73.8,72.9,30.01,SE,140,0.0,0.0,97,0.00,,,0.00,Wunderground v.1.15,2013-07-11 10:15:00,
2013-07-11 06:20:00,73.9,73.0,30.01,SE,140,0.0,0.0,97,0.00,,,0.00,Wunderground v.1.15,2013-07-11 10:20:00,
2013-07-11 06:25:00,73.9,73.0,30.01,SE,140,0.0,0.0,97,0.00,,,0.00,Wunderground v.1.15,2013-07-11 10:25:00,
2013-07-11 06:35:00,73.9,73.0,30.01,SE,140,0.0,0.0,97,0.00,,,0.00,Wunderground v.1.15,2013-07-11 10:35:00,
2013-07-11 06:40:00,74.0,73.1,30.01,SE,140,0.0,0.0,97,0.00,,,0.00,Wunderground v.1.15,2013-07-11 10:40:00,
2013-07-11 06:45:00,74.1,73.2,30.02,SE,140,0.0,0.0,97,0.00,,,0.00,Wunderground v.1.15,2013-07-11 10:45:00,
2013-07-11 06:55:00,74.2,73.3,30.02,SE,140,0.0,0.0,97,0.00,,,0.00,Wunderground v.1.15,2013-07-11 10:55:00,
2013-07-11 07:01:00,74.2,73.3,30.02,SE,140,0.0,0.0,97,0.00,,,0.00,Wunderground v.1.15,2013-07-11 11:01:00,
2013-07-11 07:10:00,74.3,73.4,30.02,SE,140,0.0,0.0,97,0.00,,,0.00,Wunderground v.1.15,2013-07-11 11:10:00,
2013-07-11 07:15:00,74.4,73.5,30.02,SE,140,0.0,0.0,97,0.00,,,0.00,Wunderground v.1.15,2013-07-11 11:15:00,
2013-07-11 07:20:00,74.5,73.6,30.02,SE,140,0.0,0.0,97,0.00,,,0.00,Wunderground v.1.15,2013-07-11 11:20:00,
2013-07-11 07:25:00,74.6,73.7,30.02,SE,140,0.0,0.0,97,0.00,,,0.00,Wunderground v.1.15,2013-07-11 11:25:00,
2013-07-11 07:30:00,74.8,73.9,30.02,SE,140,0.0,0.0,97,0.00,,,0.00,Wunderground v.1.15,2013-07-11 11:30:00,
2013-07-11 07:40:00,75.3,74.4,30.02,SE,140,0.0,0.0,97,0.00,,,0.00,Wunderground v.1.15,2013-07-11 11:40:00,
2013-07-11 07:45:00,75.7,74.8,30.03,SE,140,0.0,0.0,97,0.00,,,0.00,Wunderground v.1.15,2013-07-11 11:45:00,
2013-07-11 07:50:00,76.1,75.2,30.03,SE,140,0.0,0.0,97,0.00,,,0.00,Wunderground v.1.15,2013-07-11 11:50:00,
2013-07-11 07:55:00,76.6,75.7,30.03,SE,140,0.0,0.0,97,0.00,,,0.00,Wunderground v.1.15,2013-07-11 11:55:00,
2013-07-11 08:00:00,77.1,75.9,30.03,SE,140,0.0,0.0,96,0.00,,,0.00,Wunderground v.1.15,2013-07-11 12:00:00,
2013-07-11 08:10:00,78.0,76.1,30.03,SE,140,1.0,1.0,94,0.00,,,0.00,Wunderground v.1.15,2013-07-11 12:10:00,
2013-07-11 08:20:00,78.9,76.4,30.03,SE,140,1.0,1.0,92,0.00,,,0.00,Wunderground v.1.15,2013-07-11 12:20:00,
2013-07-11 08:25:00,78.9,76.0,30.03,SE,140,1.0,1.0,91,0.00,,,0.00,Wunderground v.1.15,2013-07-11 12:25:00,
2013-07-11 08:30:00,79.3,76.1,30.02,SE,140,2.0,3.0,90,0.00,,,0.00,Wunderground v.1.15,2013-07-11 12:30:00,
2013-07-11 08:35:00,79.7,76.5,30.03,SE,140,2.0,4.0,90,0.00,,,0.00,Wunderground v.1.15,2013-07-11 12:35:00,
2013-07-11 08:45:00,80.7,76.8,30.03,SE,140,1.0,5.0,88,0.00,,,0.00,Wunderground v.1.15,2013-07-11 12:45:00,
2013-07-11 08:50:00,81.2,77.0,30.03,SE,140,1.0,1.0,87,0.00,,,0.00,Wunderground v.1.15,2013-07-11 12:50:00,
2013-07-11 08:55:00,81.5,76.9,30.03,SE,140,1.0,1.0,86,0.00,,,0.00,Wunderground v.1.15,2013-07-11 12:55:00,
2013-07-11 09:00:00,81.9,76.9,30.02,SE,131,1.0,1.0,85,0.00,,,0.00,Wunderground v.1.15,2013-07-11 13:00:00,
2013-07-11 09:10:00,82.3,77.0,30.02,ESE,120,1.0,1.0,84,0.00,,,0.00,Wunderground v.1.15,2013-07-11 13:10:00,
2013-07-11 09:20:00,82.9,76.8,30.03,ESE,119,0.0,6.0,82,0.00,,,0.00,Wunderground v.1.15,2013-07-11 13:20:00,
2013-07-11 09:25:00,83.2,76.8,30.03,ESE,119,1.0,6.0,81,0.00,,,0.00,Wunderground v.1.15,2013-07-11 13:25:00,
2013-07-11 09:30:00,83.4,76.6,30.03,ESE,116,1.0,6.0,80,0.00,,,0.00,Wunderground v.1.15,2013-07-11 13:30:00,
2013-07-11 09:40:00,84.0,76.4,30.03,ESE,116,0.0,6.0,78,0.00,,,0.00,Wunderground v.1.15,2013-07-11 13:40:00,
2013-07-11 09:50:00,85.2,76.8,30.03,ESE,117,0.0,6.0,76,0.00,,,0.00,Wunderground v.1.15,2013-07-11 13:50:00,
2013-07-11 09:55:00,85.6,76.4,30.03,ESE,117,0.0,6.0,74,0.00,,,0.00,Wunderground v.1.15,2013-07-11 13:55:00,
2013-07-11 10:00:00,86.1,75.6,30.02,ESE,117,0.0,1.0,71,0.00,,,0.00,Wunderground v.1.15,2013-07-11 14:00:00,
2013-07-11 10:10:00,86.6,75.2,30.03,ESE,118,0.0,1.0,69,0.00,,,0.00,Wunderground v.1.15,2013-07-11 14:10:00,
2013-07-11 10:15:00,86.5,75.1,30.03,SE,128,1.0,1.0,69,0.00,,,0.00,Wunderground v.1.15,2013-07-11 14:15:00,
2013-07-11 10:20:00,86.5,75.1,30.02,SE,128,1.0,1.0,69,0.00,,,0.00,Wunderground v.1.15,2013-07-11 14:20:00,
2013-07-11 10:35:00,86.9,75.1,30.02,SE,132,1.0,2.0,68,0.00,,,0.00,Wunderground v.1.15,2013-07-11 14:35:00,
2013-07-11 10:45:00,87.4,74.6,30.02,SE,131,1.0,2.0,66,0.00,,,0.00,Wunderground v.1.15,2013-07-11 14:45:00,
2013-07-11 10:50:00,87.9,75.1,30.02,SE,131,1.0,1.0,66,0.00,,,0.00,Wunderground v.1.15,2013-07-11 14:50:00,
2013-07-11 10:55:00,88.2,75.4,30.02,SE,131,0.0,1.0,66,0.00,,,0.00,Wunderground v.1.15,2013-07-11 14:55:00,
2013-07-11 11:05:00,88.4,75.1,30.02,SE,134,1.0,5.0,65,0.00,,,0.00,Wunderground v.1.15,2013-07-11 15:05:00,
2013-07-11 11:15:00,88.8,73.6,30.03,SE,134,1.0,5.0,61,0.00,,,0.00,Wunderground v.1.15,2013-07-11 15:15:00,
2013-07-11 11:20:00,89.3,74.1,30.03,SE,132,1.0,1.0,61,0.00,,,0.00,Wunderground v.1.15,2013-07-11 15:20:00,
2013-07-11 11:25:00,89.7,73.5,30.03,SE,132,1.0,5.0,59,0.00,,,0.00,Wunderground v.1.15,2013-07-11 15:25:00,
2013-07-11 11:30:00,89.5,73.3,30.03,SE,134,1.0,1.0,59,0.00,,,0.00,Wunderground v.1.15,2013-07-11 15:30:00,
2013-07-11 11:35:00,89.9,74.2,30.03,SE,130,1.0,5.0,60,0.00,,,0.00,Wunderground v.1.15,2013-07-11 15:35:00,
2013-07-11 11:45:00,90.3,73.5,30.03,SE,129,1.0,5.0,58,0.00,,,0.00,Wunderground v.1.15,2013-07-11 15:45:00,
2013-07-11 11:55:00,90.4,73.6,30.03,SE,136,1.0,5.0,58,0.00,,,0.00,Wunderground v.1.15,2013-07-11 15:55:00,
2013-07-11 12:05:00,86.5,72.9,30.04,SW,226,4.0,13.0,64,0.00,,,0.00,Wunderground v.1.15,2013-07-11 16:05:00,
2013-07-11 12:10:00,82.8,70.7,30.03,SW,229,9.0,11.0,67,0.00,,,0.00,Wunderground v.1.15,2013-07-11 16:10:00,
2013-07-11 12:15:00,81.7,71.4,30.03,SW,229,10.0,12.0,71,0.00,,,0.00,Wunderground v.1.15,2013-07-11 16:15:00,
2013-07-11 12:20:00,81.3,70.6,30.03,SW,229,9.0,9.0,70,0.00,,,0.00,Wunderground v.1.15,2013-07-11 16:20:00,
2013-07-11 12:25:00,81.0,69.9,30.03,SW,227,7.0,15.0,69,0.00,,,0.00,Wunderground v.1.15,2013-07-11 16:25:00,
2013-07-11 12:35:00,77.5,71.9,30.04,SW,226,9.0,9.0,83,0.00,,,0.00,Wunderground v.1.15,2013-07-11 16:35:00,
2013-07-11 12:40:00,76.2,71.0,30.04,SW,231,9.0,9.0,84,0.00,,,0.00,Wunderground v.1.15,2013-07-11 16:40:00,
2013-07-11 12:45:00,76.4,72.6,30.03,SW,231,8.0,9.0,88,0.00,,,0.00,Wunderground v.1.15,2013-07-11 16:45:00,
2013-07-11 12:50:00,77.3,73.5,30.03,SW,231,4.0,4.0,88,0.00,,,0.00,Wunderground v.1.15,2013-07-11 16:50:00,
2013-07-11 12:55:00,78.5,74.0,30.02,SW,231,4.0,6.0,86,0.00,,,0.00,Wunderground v.1.15,2013-07-11 16:55:00,
2013-07-11 13:00:00,79.5,74.2,30.02,SW,231,5.0,5.0,84,0.00,,,0.00,Wunderground v.1.15,2013-07-11 17:00:00,
2013-07-11 13:15:00,82.0,73.7,30.02,SW,231,5.0,7.0,76,0.00,,,0.00,Wunderground v.1.15,2013-07-11 17:15:00,
2013-07-11 13:20:00,83.1,73.1,30.02,SW,231,4.0,7.0,72,0.00,,,0.00,Wunderground v.1.15,2013-07-11 17:20:00,
2013-07-11 13:35:00,83.5,73.5,30.02,SW,231,5.0,10.0,72,0.00,,,0.00,Wunderground v.1.15,2013-07-11 17:35:00,
2013-07-11 13:40:00,83.3,73.7,30.02,SW,230,6.0,7.0,73,0.00,,,0.00,Wunderground v.1.15,2013-07-11 17:40:00,
2013-07-11 13:50:00,83.0,74.3,30.01,SW,230,5.0,7.0,75,0.00,,,0.00,Wunderground v.1.15,2013-07-11 17:50:00,
2013-07-11 13:55:00,82.9,74.9,30.01,SW,230,5.0,7.0,77,0.00,,,0.00,Wunderground v.1.15,2013-07-11 17:55:00,
2013-07-11 14:00:00,83.8,74.6,30.01,SW,230,4.0,7.0,74,0.00,,,0.00,Wunderground v.1.15,2013-07-11 18:00:00,
2013-07-11 14:25:00,84.1,75.7,30.00,SW,228,6.0,7.0,76,0.00,,,0.00,Wunderground v.1.15,2013-07-11 18:25:00,
2013-07-11 14:30:00,84.5,75.7,30.00,SW,228,5.0,7.0,75,0.00,,,0.00,Wunderground v.1.15,2013-07-11 18:30:00,
2013-07-11 14:35:00,83.9,74.7,30.00,SW,229,7.0,12.0,74,0.00,,,0.00,Wunderground v.1.15,2013-07-11 18:35:00,
2013-07-11 14:40:00,83.8,75.4,29.99,SW,228,8.0,8.0,76,0.00,,,0.00,Wunderground v.1.15,2013-07-11 18:40:00,
2013-07-11 14:50:00,84.5,75.7,29.99,SW,227,7.0,7.0,75,0.00,,,0.00,Wunderground v.1.15,2013-07-11 18:50:00,
2013-07-11 15:01:00,84.7,75.1,29.99,SW,230,6.0,6.0,73,0.00,,,0.00,Wunderground v.1.15,2013-07-11 19:01:00,
2013-07-11 15:10:00,85.0,75.4,29.99,SW,230,7.0,12.0,73,0.00,,,0.00,Wunderground v.1.15,2013-07-11 19:10:00,
2013-07-11 15:15:00,85.1,75.5,29.98,SW,229,7.0,7.0,73,0.00,,,0.00,Wunderground v.1.15,2013-07-11 19:15:00,
2013-07-11 15:20:00,84.8,75.2,29.98,SW,229,7.0,11.0,73,0.00,,,0.00,Wunderground v.1.15,2013-07-11 19:20:00,
2013-07-11 15:25:00,84.8,75.2,29.99,SW,230,7.0,7.0,73,0.00,,,0.00,Wunderground v.1.15,2013-07-11 19:25:00,
2013-07-11 15:30:00,85.0,75.4,29.99,SW,229,7.0,9.0,73,0.00,,,0.00,Wunderground v.1.15,2013-07-11 19:30:00,
2013-07-11 15:35:00,85.5,75.9,29.98,SW,229,6.0,8.0,73,0.00,,,0.00,Wunderground v.1.15,2013-07-11 19:35:00,
2013-07-11 15:40:00,85.3,75.2,29.99,SW,230,6.0,8.0,72,0.00,,,0.00,Wunderground v.1.15,2013-07-11 19:40:00,
2013-07-11 15:50:00,85.4,75.8,29.98,SW,232,8.0,8.0,73,0.00,,,0.00,Wunderground v.1.15,2013-07-11 19:50:00,
2013-07-11 16:00:00,85.9,75.0,29.98,SW,232,5.0,10.0,70,0.00,,,0.00,Wunderground v.1.15,2013-07-11 20:00:00,
2013-07-11 16:10:00,85.4,75.8,29.97,SW,233,7.0,10.0,73,0.00,,,0.00,Wunderground v.1.15,2013-07-11 20:10:00,
2013-07-11 16:15:00,85.9,75.4,29.97,SW,234,8.0,10.0,71,0.00,,,0.00,Wunderground v.1.15,2013-07-11 20:15:00,
2013-07-11 16:25:00,86.6,75.2,29.97,SW,235,5.0,10.0,69,0.00,,,0.00,Wunderground v.1.15,2013-07-11 20:25:00,
2013-07-11 16:30:00,85.9,75.0,29.97,SW,236,6.0,10.0,70,0.00,,,0.00,Wunderground v.1.15,2013-07-11 20:30:00,
2013-07-11 16:35:00,85.6,75.5,29.97,SW,235,7.0,10.0,72,0.00,,,0.00,Wunderground v.1.15,2013-07-11 20:35:00,
2013-07-11 16:40:00,85.7,75.2,29.97,SW,236,7.0,10.0,71,0.00,,,0.00,Wunderground v.1.15,2013-07-11 20:40:00,
2013-07-11 16:45:00,85.9,75.0,29.97,SW,236,7.0,10.0,70,0.00,,,0.00,Wunderground v.1.15,2013-07-11 20:45:00,
2013-07-11 16:50:00,86.0,74.6,29.97,SW,236,6.0,10.0,69,0.00,,,0.00,Wunderground v.1.15,2013-07-11 20:50:00,
2013-07-11 17:00:00,85.5,75.0,29.96,SW,236,5.0,9.0,71,0.00,,,0.00,Wunderground v.1.15,2013-07-11 21:00:00,
2013-07-11 17:15:00,86.1,74.3,29.96,SW,236,2.0,9.0,68,0.00,,,0.00,Wunderground v.1.15,2013-07-11 21:15:00,
2013-07-11 17:20:00,84.0,72.3,29.96,NE,55,4.0,9.0,68,0.00,,,0.00,Wunderground v.1.15,2013-07-11 21:20:00,
2013-07-11 17:25:00,82.1,72.2,29.97,ENE,70,6.0,9.0,72,0.00,,,0.00,Wunderground v.1.15,2013-07-11 21:25:00,
2013-07-11 17:35:00,82.5,71.7,29.97,ENE,71,3.0,9.0,70,0.00,,,0.00,Wunderground v.1.15,2013-07-11 21:35:00,
2013-07-11 17:40:00,83.3,72.9,29.97,ENE,71,1.0,9.0,71,0.00,,,0.00,Wunderground v.1.15,2013-07-11 21:40:00,
2013-07-11 17:50:00,84.6,74.2,29.97,ENE,71,1.0,1.0,71,0.00,,,0.00,Wunderground v.1.15,2013-07-11 21:50:00,
2013-07-11 17:55:00,85.4,74.9,29.97,ENE,71,0.0,9.0,71,0.00,,,0.00,Wunderground v.1.15,2013-07-11 21:55:00,
2013-07-11 18:00:00,86.0,75.1,29.97,ENE,71,0.0,3.0,70,0.00,,,0.00,Wunderground v.1.15,2013-07-11 22:00:00,
2013-07-11 18:10:00,85.5,75.0,29.97,ENE,71,1.0,2.0,71,0.00,,,0.00,Wunderground v.1.15,2013-07-11 22:10:00,
2013-07-11 18:15:00,84.5,73.2,29.97,ENE,70,3.0,4.0,69,0.00,,,0.00,Wunderground v.1.15,2013-07-11 22:15:00,
2013-07-11 18:20:00,83.8,72.5,29.97,ENE,70,4.0,4.0,69,0.00,,,0.00,Wunderground v.1.15,2013-07-11 22:20:00,
2013-07-11 18:25:00,83.6,71.9,29.97,ENE,71,3.0,4.0,68,0.00,,,0.00,Wunderground v.1.15,2013-07-11 22:25:00,
2013-07-11 18:30:00,83.4,72.2,29.97,ENE,71,4.0,5.0,69,0.00,,,0.00,Wunderground v.1.15,2013-07-11 22:30:00,
2013-07-11 18:35:00,83.8,72.5,29.98,ENE,71,2.0,5.0,69,0.00,,,0.00,Wunderground v.1.15,2013-07-11 22:35:00,
2013-07-11 18:45:00,84.3,72.6,29.97,ENE,71,2.0,4.0,68,0.00,,,0.00,Wunderground v.1.15,2013-07-11 22:45:00,
2013-07-11 18:55:00,84.1,72.4,29.98,ENE,71,3.0,5.0,68,0.00,,,0.00,Wunderground v.1.15,2013-07-11 22:55:00,
2013-07-11 19:00:00,83.7,72.9,29.97,ENE,67,3.0,8.0,70,0.00,,,0.00,Wunderground v.1.15,2013-07-11 23:00:00,
2013-07-11 19:10:00,81.9,73.2,29.98,ENE,63,7.0,10.0,75,0.00,,,0.00,Wunderground v.1.15,2013-07-11 23:10:00,
2013-07-11 19:15:00,81.1,73.2,29.98,NE,36,6.0,10.0,77,0.00,,,0.00,Wunderground v.1.15,2013-07-11 23:15:00,
2013-07-11 19:30:00,80.5,73.4,29.98,NE,38,5.0,8.0,79,0.00,,,0.00,Wunderground v.1.15,2013-07-11 23:30:00,
2013-07-11 19:35:00,80.7,73.6,29.98,East,90,4.0,8.0,79,0.00,,,0.00,Wunderground v.1.15,2013-07-11 23:35:00,
2013-07-11 19:45:00,80.7,73.6,29.98,ENE,67,1.0,8.0,79,0.00,,,0.00,Wunderground v.1.15,2013-07-11 23:45:00,
2013-07-11 19:55:00,80.7,73.6,29.98,ENE,57,1.0,6.0,79,0.00,,,0.00,Wunderground v.1.15,2013-07-11 23:55:00,
2013-07-11 20:00:00,80.6,73.9,29.98,NE,51,1.0,1.0,80,0.00,,,0.00,Wunderground v.1.15,2013-07-12 00:00:00,
2013-07-11 20:15:00,80.4,73.7,29.97,NE,51,0.0,2.0,80,0.00,,,0.00,Wunderground v.1.15,2013-07-12 00:15:00,
2013-07-11 20:20:00,80.3,73.6,29.98,NE,52,0.0,0.0,80,0.00,,,0.00,Wunderground v.1.15,2013-07-12 00:20:00,
2013-07-11 20:30:00,80.0,73.6,29.98,NE,52,0.0,0.0,81,0.00,,,0.00,Wunderground v.1.15,2013-07-12 00:30:00,
2013-07-11 20:40:00,79.7,73.7,29.98,NE,55,0.0,0.0,82,0.00,,,0.00,Wunderground v.1.15,2013-07-12 00:40:00,
2013-07-11 20:45:00,79.7,73.7,29.98,NE,56,0.0,0.0,82,0.00,,,0.00,Wunderground v.1.15,2013-07-12 00:45:00,
2013-07-11 20:50:00,79.6,74.0,29.98,NE,56,0.0,0.0,83,0.00,,,0.00,Wunderground v.1.15,2013-07-12 00:50:00,
2013-07-11 21:00:00,79.3,73.7,29.98,NE,56,0.0,0.0,83,0.00,,,0.00,Wunderground v.1.15,2013-07-12 01:00:00,
2013-07-11 21:10:00,78.8,73.6,29.98,NE,56,0.0,0.0,84,0.00,,,0.00,Wunderground v.1.15,2013-07-12 01:10:00,
2013-07-11 21:20:00,78.5,73.6,29.99,NE,56,0.0,0.0,85,0.00,,,0.00,Wunderground v.1.15,2013-07-12 01:20:00,
2013-07-11 21:25:00,78.5,73.6,29.99,NE,56,0.0,0.0,85,0.00,,,0.00,Wunderground v.1.15,2013-07-12 01:25:00,
2013-07-11 21:30:00,78.5,73.6,29.99,NE,56,0.0,0.0,85,0.00,,,0.00,Wunderground v.1.15,2013-07-12 01:30:00,
2013-07-11 21:35:00,78.5,74.0,29.99,NE,56,0.0,0.0,86,0.00,,,0.00,Wunderground v.1.15,2013-07-12 01:35:00,
2013-07-11 21:40:00,78.3,73.8,30.00,NE,56,0.0,0.0,86,0.00,,,0.00,Wunderground v.1.15,2013-07-12 01:40:00,
2013-07-11 21:50:00,77.9,73.7,29.99,NE,56,0.0,0.0,87,0.00,,,0.00,Wunderground v.1.15,2013-07-12 01:50:00,
2013-07-11 22:00:00,78.1,73.9,30.00,NE,56,0.0,0.0,87,0.00,,,0.00,Wunderground v.1.15,2013-07-12 02:00:00,
2013-07-11 22:10:00,78.1,73.9,29.99,NE,56,0.0,0.0,87,0.00,,,0.00,Wunderground v.1.15,2013-07-12 02:10:00,
2013-07-11 22:15:00,78.1,74.3,29.99,NE,56,0.0,0.0,88,0.00,,,0.00,Wunderground v.1.15,2013-07-12 02:15:00,
2013-07-11 22:20:00,78.1,73.9,30.00,NE,56,0.0,1.0,87,0.00,,,0.00,Wunderground v.1.15,2013-07-12 02:20:00,
2013-07-11 22:25:00,77.7,74.2,30.00,NE,56,1.0,1.0,89,0.00,,,0.00,Wunderground v.1.15,2013-07-12 02:25:00,
2013-07-11 22:35:00,77.4,73.6,30.00,ENE,60,1.0,2.0,88,0.00,,,0.00,Wunderground v.1.15,2013-07-12 02:35:00,
2013-07-11 22:40:00,77.4,73.6,30.00,ENE,60,0.0,0.0,88,0.00,,,0.00,Wunderground v.1.15,2013-07-12 02:40:00,
2013-07-11 22:45:00,77.5,73.7,30.00,ENE,60,0.0,0.0,88,0.00,,,0.00,Wunderground v.1.15,2013-07-12 02:45:00,
2013-07-11 22:50:00,77.6,73.8,30.00,ENE,60,0.0,0.0,88,0.00,,,0.00,Wunderground v.1.15,2013-07-12 02:50:00,
2013-07-11 23:00:00,77.7,73.9,30.00,ENE,60,0.0,0.0,88,0.00,,,0.00,Wunderground v.1.15,2013-07-12 03:00:00,
2013-07-11 23:10:00,77.6,74.1,30.00,ENE,60,0.0,0.0,89,0.00,,,0.00,Wunderground v.1.15,2013-07-12 03:10:00,
2013-07-11 23:15:00,77.6,73.8,30.00,ENE,60,0.0,0.0,88,0.00,,,0.00,Wunderground v.1.15,2013-07-12 03:15:00,
2013-07-11 23:25:00,77.5,73.7,30.00,ENE,60,0.0,0.0,88,0.00,,,0.00,Wunderground v.1.15,2013-07-12 03:25:00,
2013-07-11 23:30:00,77.6,73.8,29.99,ENE,60,0.0,0.0,88,0.00,,,0.00,Wunderground v.1.15,2013-07-12 03:30:00,
2013-07-11 23:35:00,77.6,73.8,30.00,ENE,60,0.0,0.0,88,0.00,,,0.00,Wunderground v.1.15,2013-07-12 03:35:00,
2013-07-11 23:45:00,77.6,74.1,29.99,ENE,60,0.0,0.0,89,0.00,,,0.00,Wunderground v.1.15,2013-07-12 03:45:00,
2013-07-11 23:50:00,77.6,74.1,29.99,ENE,60,0.0,0.0,89,0.00,,,0.00,Wunderground v.1.15,2013-07-12 03:50:00,